sensor_id;sensor_type;location;lat;lon;timestamp;P1;durP1;ratioP1;P2;durP2;ratioP2
12760;SDS011;6444;49.742;6.114;2024-01-16T00:01:09;10.60;;;5.60;;
12760;SDS011;6444;49.742;6.114;2024-01-16T00:03:36;11.90;;;5.27;;
12760;SDS011;6444;49.742;6.114;2024-01-16T00:06:03;10.07;;;5.57;;
12760;SDS011;6444;49.742;6.114;2024-01-16T00:08:30;9.27;;;5.43;;
12760;SDS011;6444;49.742;6.114;2024-01-16T00:10:56;9.17;;;5.63;;
12760;SDS011;6444;49.742;6.114;2024-01-16T00:13:24;7.30;;;5.37;;
12760;SDS011;6444;49.742;6.114;2024-01-16T00:15:50;7.87;;;5.73;;
12760;SDS011;6444;49.742;6.114;2024-01-16T00:18:17;7.07;;;5.20;;
12760;SDS011;6444;49.742;6.114;2024-01-16T00:20:44;8.50;;;5.77;;
12760;SDS011;6444;49.742;6.114;2024-01-16T00:23:11;11.87;;;5.83;;
12760;SDS011;6444;49.742;6.114;2024-01-16T00:25:38;9.93;;;5.83;;
12760;SDS011;6444;49.742;6.114;2024-01-16T00:28:05;8.63;;;6.00;;
12760;SDS011;6444;49.742;6.114;2024-01-16T00:30:32;8.67;;;5.23;;
12760;SDS011;6444;49.742;6.114;2024-01-16T00:32:58;8.50;;;5.73;;
12760;SDS011;6444;49.742;6.114;2024-01-16T00:35:25;12.53;;;6.27;;
12760;SDS011;6444;49.742;6.114;2024-01-16T00:37:51;10.70;;;5.30;;
12760;SDS011;6444;49.742;6.114;2024-01-16T00:40:18;10.20;;;6.17;;
12760;SDS011;6444;49.742;6.114;2024-01-16T00:42:45;13.62;;;8.32;;
12760;SDS011;6444;49.742;6.114;2024-01-16T00:45:11;10.47;;;6.23;;
12760;SDS011;6444;49.742;6.114;2024-01-16T00:47:39;10.60;;;6.37;;
12760;SDS011;6444;49.742;6.114;2024-01-16T00:50:05;10.23;;;6.50;;
12760;SDS011;6444;49.742;6.114;2024-01-16T00:52:32;14.67;;;6.17;;
12760;SDS011;6444;49.742;6.114;2024-01-16T00:54:59;14.47;;;5.77;;
12760;SDS011;6444;49.742;6.114;2024-01-16T00:57:26;9.17;;;6.13;;
12760;SDS011;6444;49.742;6.114;2024-01-16T00:59:53;9.77;;;5.77;;
12760;SDS011;6444;49.742;6.114;2024-01-16T01:02:20;10.60;;;5.50;;
12760;SDS011;6444;49.742;6.114;2024-01-16T01:04:47;9.90;;;5.57;;
12760;SDS011;6444;49.742;6.114;2024-01-16T01:07:13;11.03;;;5.90;;
12760;SDS011;6444;49.742;6.114;2024-01-16T01:09:40;9.57;;;5.80;;
12760;SDS011;6444;49.742;6.114;2024-01-16T01:12:07;8.27;;;5.70;;
12760;SDS011;6444;49.742;6.114;2024-01-16T01:14:33;8.27;;;5.80;;
12760;SDS011;6444;49.742;6.114;2024-01-16T01:17:00;11.90;;;5.80;;
12760;SDS011;6444;49.742;6.114;2024-01-16T01:19:26;10.33;;;5.90;;
12760;SDS011;6444;49.742;6.114;2024-01-16T01:21:53;8.63;;;5.67;;
12760;SDS011;6444;49.742;6.114;2024-01-16T01:24:20;9.40;;;5.70;;
12760;SDS011;6444;49.742;6.114;2024-01-16T01:26:46;13.07;;;6.00;;
12760;SDS011;6444;49.742;6.114;2024-01-16T01:29:13;8.20;;;5.47;;
12760;SDS011;6444;49.742;6.114;2024-01-16T01:31:39;8.40;;;5.70;;
12760;SDS011;6444;49.742;6.114;2024-01-16T01:34:06;12.23;;;6.17;;
12760;SDS011;6444;49.742;6.114;2024-01-16T01:36:33;14.00;;;6.33;;
12760;SDS011;6444;49.742;6.114;2024-01-16T01:38:59;12.93;;;6.17;;
12760;SDS011;6444;49.742;6.114;2024-01-16T01:41:26;14.67;;;6.20;;
12760;SDS011;6444;49.742;6.114;2024-01-16T01:43:53;13.10;;;6.07;;
12760;SDS011;6444;49.742;6.114;2024-01-16T01:46:19;11.50;;;5.87;;
12760;SDS011;6444;49.742;6.114;2024-01-16T01:48:46;13.27;;;5.97;;
12760;SDS011;6444;49.742;6.114;2024-01-16T01:51:13;14.60;;;8.25;;
12760;SDS011;6444;49.742;6.114;2024-01-16T01:53:39;13.80;;;6.50;;
12760;SDS011;6444;49.742;6.114;2024-01-16T01:56:07;13.07;;;7.03;;
12760;SDS011;6444;49.742;6.114;2024-01-16T01:58:35;11.47;;;6.20;;
12760;SDS011;6444;49.742;6.114;2024-01-16T02:01:02;13.77;;;6.43;;
12760;SDS011;6444;49.742;6.114;2024-01-16T02:03:28;10.53;;;5.10;;
12760;SDS011;6444;49.742;6.114;2024-01-16T02:05:55;8.27;;;5.33;;
12760;SDS011;6444;49.742;6.114;2024-01-16T02:08:22;12.50;;;7.45;;
12760;SDS011;6444;49.742;6.114;2024-01-16T02:10:49;10.70;;;6.33;;
12760;SDS011;6444;49.742;6.114;2024-01-16T02:13:15;9.33;;;5.63;;
12760;SDS011;6444;49.742;6.114;2024-01-16T02:15:41;7.63;;;5.27;;
12760;SDS011;6444;49.742;6.114;2024-01-16T02:18:09;11.10;;;6.00;;
12760;SDS011;6444;49.742;6.114;2024-01-16T02:20:35;11.83;;;6.33;;
12760;SDS011;6444;49.742;6.114;2024-01-16T02:23:03;8.67;;;5.83;;
12760;SDS011;6444;49.742;6.114;2024-01-16T02:25:30;7.90;;;5.90;;
12760;SDS011;6444;49.742;6.114;2024-01-16T02:27:56;13.27;;;5.40;;
12760;SDS011;6444;49.742;6.114;2024-01-16T02:30:23;8.97;;;5.23;;
12760;SDS011;6444;49.742;6.114;2024-01-16T02:32:49;8.67;;;5.70;;
12760;SDS011;6444;49.742;6.114;2024-01-16T02:35:16;9.03;;;5.43;;
12760;SDS011;6444;49.742;6.114;2024-01-16T02:37:43;10.13;;;6.23;;
12760;SDS011;6444;49.742;6.114;2024-01-16T02:40:09;13.23;;;7.28;;
12760;SDS011;6444;49.742;6.114;2024-01-16T02:42:36;13.30;;;6.37;;
12760;SDS011;6444;49.742;6.114;2024-01-16T02:45:05;12.33;;;6.03;;
12760;SDS011;6444;49.742;6.114;2024-01-16T02:47:32;11.73;;;7.53;;
12760;SDS011;6444;49.742;6.114;2024-01-16T02:49:59;11.37;;;6.30;;
12760;SDS011;6444;49.742;6.114;2024-01-16T02:52:25;10.80;;;5.60;;
12760;SDS011;6444;49.742;6.114;2024-01-16T02:54:52;9.90;;;5.67;;
12760;SDS011;6444;49.742;6.114;2024-01-16T02:57:19;8.60;;;5.43;;
12760;SDS011;6444;49.742;6.114;2024-01-16T02:59:46;13.77;;;6.40;;
12760;SDS011;6444;49.742;6.114;2024-01-16T03:02:13;11.37;;;6.17;;
12760;SDS011;6444;49.742;6.114;2024-01-16T03:04:40;7.50;;;4.97;;
12760;SDS011;6444;49.742;6.114;2024-01-16T03:07:06;17.00;;;6.10;;
12760;SDS011;6444;49.742;6.114;2024-01-16T03:09:34;10.97;;;5.37;;
12760;SDS011;6444;49.742;6.114;2024-01-16T03:12:00;15.77;;;6.40;;
12760;SDS011;6444;49.742;6.114;2024-01-16T03:14:27;11.83;;;5.87;;
12760;SDS011;6444;49.742;6.114;2024-01-16T03:16:54;9.80;;;5.87;;
12760;SDS011;6444;49.742;6.114;2024-01-16T03:19:21;6.10;;;4.90;;
12760;SDS011;6444;49.742;6.114;2024-01-16T03:21:47;10.20;;;5.70;;
12760;SDS011;6444;49.742;6.114;2024-01-16T03:24:15;13.77;;;6.47;;
12760;SDS011;6444;49.742;6.114;2024-01-16T03:26:42;10.83;;;6.27;;
12760;SDS011;6444;49.742;6.114;2024-01-16T03:29:08;10.23;;;6.00;;
12760;SDS011;6444;49.742;6.114;2024-01-16T03:31:35;8.43;;;5.23;;
12760;SDS011;6444;49.742;6.114;2024-01-16T03:34:02;9.87;;;5.37;;
12760;SDS011;6444;49.742;6.114;2024-01-16T03:36:29;10.03;;;6.27;;
12760;SDS011;6444;49.742;6.114;2024-01-16T03:38:56;9.17;;;5.97;;
12760;SDS011;6444;49.742;6.114;2024-01-16T03:41:23;9.63;;;5.73;;
12760;SDS011;6444;49.742;6.114;2024-01-16T03:43:49;9.63;;;5.80;;
12760;SDS011;6444;49.742;6.114;2024-01-16T03:46:16;12.33;;;6.07;;
12760;SDS011;6444;49.742;6.114;2024-01-16T03:48:43;8.30;;;5.03;;
12760;SDS011;6444;49.742;6.114;2024-01-16T03:51:10;10.27;;;5.87;;
12760;SDS011;6444;49.742;6.114;2024-01-16T03:53:37;8.13;;;5.23;;
12760;SDS011;6444;49.742;6.114;2024-01-16T03:56:04;9.33;;;5.20;;
12760;SDS011;6444;49.742;6.114;2024-01-16T03:58:31;10.33;;;5.23;;
12760;SDS011;6444;49.742;6.114;2024-01-16T04:00:57;9.20;;;5.10;;
12760;SDS011;6444;49.742;6.114;2024-01-16T04:03:25;8.23;;;5.33;;
12760;SDS011;6444;49.742;6.114;2024-01-16T04:05:51;15.33;;;6.80;;
12760;SDS011;6444;49.742;6.114;2024-01-16T04:08:18;12.43;;;6.00;;
12760;SDS011;6444;49.742;6.114;2024-01-16T04:10:45;11.50;;;6.93;;
12760;SDS011;6444;49.742;6.114;2024-01-16T04:13:12;14.37;;;6.67;;
12760;SDS011;6444;49.742;6.114;2024-01-16T04:15:39;13.50;;;6.50;;
12760;SDS011;6444;49.742;6.114;2024-01-16T04:18:06;13.53;;;6.97;;
12760;SDS011;6444;49.742;6.114;2024-01-16T04:20:33;9.17;;;6.23;;
12760;SDS011;6444;49.742;6.114;2024-01-16T04:22:59;10.43;;;6.13;;
12760;SDS011;6444;49.742;6.114;2024-01-16T04:25:27;12.17;;;6.13;;
12760;SDS011;6444;49.742;6.114;2024-01-16T04:27:53;15.53;;;7.43;;
12760;SDS011;6444;49.742;6.114;2024-01-16T04:30:20;9.87;;;6.03;;
12760;SDS011;6444;49.742;6.114;2024-01-16T04:32:47;15.13;;;6.73;;
12760;SDS011;6444;49.742;6.114;2024-01-16T04:35:14;15.03;;;7.17;;
12760;SDS011;6444;49.742;6.114;2024-01-16T04:37:40;11.30;;;6.60;;
12760;SDS011;6444;49.742;6.114;2024-01-16T04:40:07;16.40;;;7.60;;
12760;SDS011;6444;49.742;6.114;2024-01-16T04:42:34;17.07;;;8.67;;
12760;SDS011;6444;49.742;6.114;2024-01-16T04:45:00;18.60;;;7.20;;
12760;SDS011;6444;49.742;6.114;2024-01-16T04:47:28;19.03;;;7.50;;
12760;SDS011;6444;49.742;6.114;2024-01-16T04:49:54;18.93;;;7.23;;
12760;SDS011;6444;49.742;6.114;2024-01-16T04:52:21;16.33;;;7.50;;
12760;SDS011;6444;49.742;6.114;2024-01-16T04:54:48;13.53;;;7.33;;
12760;SDS011;6444;49.742;6.114;2024-01-16T04:57:14;14.80;;;7.03;;
12760;SDS011;6444;49.742;6.114;2024-01-16T04:59:41;12.50;;;6.93;;
12760;SDS011;6444;49.742;6.114;2024-01-16T05:02:07;19.30;;;10.75;;
12760;SDS011;6444;49.742;6.114;2024-01-16T05:04:36;15.67;;;8.77;;
12760;SDS011;6444;49.742;6.114;2024-01-16T05:07:01;12.30;;;7.07;;
12760;SDS011;6444;49.742;6.114;2024-01-16T05:09:27;12.83;;;6.73;;
12760;SDS011;6444;49.742;6.114;2024-01-16T05:11:55;13.43;;;7.67;;
12760;SDS011;6444;49.742;6.114;2024-01-16T05:14:21;11.63;;;6.97;;
12760;SDS011;6444;49.742;6.114;2024-01-16T05:16:48;16.73;;;7.40;;
12760;SDS011;6444;49.742;6.114;2024-01-16T05:19:15;12.60;;;7.27;;
12760;SDS011;6444;49.742;6.114;2024-01-16T05:21:41;13.13;;;7.00;;
12760;SDS011;6444;49.742;6.114;2024-01-16T05:24:08;15.03;;;6.70;;
12760;SDS011;6444;49.742;6.114;2024-01-16T05:26:34;15.53;;;7.80;;
12760;SDS011;6444;49.742;6.114;2024-01-16T05:29:01;23.43;;;8.33;;
12760;SDS011;6444;49.742;6.114;2024-01-16T05:31:28;15.73;;;8.20;;
12760;SDS011;6444;49.742;6.114;2024-01-16T05:33:54;11.20;;;6.73;;
12760;SDS011;6444;49.742;6.114;2024-01-16T05:36:21;13.30;;;7.37;;
12760;SDS011;6444;49.742;6.114;2024-01-16T05:38:48;11.63;;;6.93;;
12760;SDS011;6444;49.742;6.114;2024-01-16T05:41:15;12.70;;;7.13;;
12760;SDS011;6444;49.742;6.114;2024-01-16T05:43:42;12.00;;;7.43;;
12760;SDS011;6444;49.742;6.114;2024-01-16T05:46:09;15.23;;;7.80;;
12760;SDS011;6444;49.742;6.114;2024-01-16T05:48:36;14.57;;;7.50;;
12760;SDS011;6444;49.742;6.114;2024-01-16T05:51:02;14.90;;;7.17;;
12760;SDS011;6444;49.742;6.114;2024-01-16T05:53:29;11.53;;;7.33;;
12760;SDS011;6444;49.742;6.114;2024-01-16T05:55:56;13.17;;;7.57;;
12760;SDS011;6444;49.742;6.114;2024-01-16T05:58:22;14.70;;;8.00;;
12760;SDS011;6444;49.742;6.114;2024-01-16T06:03:20;13.27;;;8.53;;
12760;SDS011;6444;49.742;6.114;2024-01-16T06:05:47;18.13;;;9.17;;
12760;SDS011;6444;49.742;6.114;2024-01-16T06:08:13;14.57;;;7.37;;
12760;SDS011;6444;49.742;6.114;2024-01-16T06:10:40;17.17;;;8.10;;
12760;SDS011;6444;49.742;6.114;2024-01-16T06:13:06;14.70;;;8.03;;
12760;SDS011;6444;49.742;6.114;2024-01-16T06:15:33;18.63;;;8.93;;
12760;SDS011;6444;49.742;6.114;2024-01-16T06:18:00;20.27;;;9.53;;
12760;SDS011;6444;49.742;6.114;2024-01-16T06:20:26;17.77;;;9.80;;
12760;SDS011;6444;49.742;6.114;2024-01-16T06:22:53;21.40;;;13.32;;
12760;SDS011;6444;49.742;6.114;2024-01-16T06:25:20;21.70;;;13.00;;
12760;SDS011;6444;49.742;6.114;2024-01-16T06:27:46;14.53;;;9.03;;
12760;SDS011;6444;49.742;6.114;2024-01-16T06:30:13;17.30;;;8.37;;
12760;SDS011;6444;49.742;6.114;2024-01-16T06:32:40;15.83;;;7.33;;
12760;SDS011;6444;49.742;6.114;2024-01-16T06:35:07;21.37;;;11.18;;
12760;SDS011;6444;49.742;6.114;2024-01-16T06:37:34;17.83;;;9.57;;
12760;SDS011;6444;49.742;6.114;2024-01-16T06:40:00;17.40;;;8.80;;
12760;SDS011;6444;49.742;6.114;2024-01-16T06:42:27;14.27;;;8.73;;
12760;SDS011;6444;49.742;6.114;2024-01-16T06:44:54;13.17;;;8.00;;
12760;SDS011;6444;49.742;6.114;2024-01-16T06:47:21;19.10;;;8.87;;
12760;SDS011;6444;49.742;6.114;2024-01-16T06:49:47;15.23;;;8.43;;
12760;SDS011;6444;49.742;6.114;2024-01-16T06:52:14;16.83;;;8.13;;
12760;SDS011;6444;49.742;6.114;2024-01-16T06:54:41;14.80;;;7.77;;
12760;SDS011;6444;49.742;6.114;2024-01-16T06:57:08;14.83;;;8.33;;
12760;SDS011;6444;49.742;6.114;2024-01-16T06:59:35;14.27;;;7.43;;
12760;SDS011;6444;49.742;6.114;2024-01-16T07:02:01;14.13;;;9.20;;
12760;SDS011;6444;49.742;6.114;2024-01-16T07:04:29;20.67;;;9.87;;
12760;SDS011;6444;49.742;6.114;2024-01-16T07:06:55;15.57;;;9.03;;
12760;SDS011;6444;49.742;6.114;2024-01-16T07:09:22;14.47;;;8.87;;
12760;SDS011;6444;49.742;6.114;2024-01-16T07:11:49;18.80;;;10.73;;
12760;SDS011;6444;49.742;6.114;2024-01-16T07:14:16;19.20;;;9.13;;
12760;SDS011;6444;49.742;6.114;2024-01-16T07:16:43;18.23;;;9.27;;
12760;SDS011;6444;49.742;6.114;2024-01-16T07:19:09;17.70;;;8.73;;
12760;SDS011;6444;49.742;6.114;2024-01-16T07:21:36;19.00;;;9.43;;
12760;SDS011;6444;49.742;6.114;2024-01-16T07:24:02;18.70;;;9.80;;
12760;SDS011;6444;49.742;6.114;2024-01-16T07:26:29;19.37;;;9.17;;
12760;SDS011;6444;49.742;6.114;2024-01-16T07:28:56;16.00;;;8.90;;
12760;SDS011;6444;49.742;6.114;2024-01-16T07:31:23;22.73;;;12.80;;
12760;SDS011;6444;49.742;6.114;2024-01-16T07:33:49;22.58;;;14.70;;
12760;SDS011;6444;49.742;6.114;2024-01-16T07:36:16;22.53;;;12.07;;
12760;SDS011;6444;49.742;6.114;2024-01-16T07:38:42;18.87;;;11.27;;
12760;SDS011;6444;49.742;6.114;2024-01-16T07:41:09;21.57;;;11.27;;
12760;SDS011;6444;49.742;6.114;2024-01-16T07:43:35;22.07;;;11.57;;
12760;SDS011;6444;49.742;6.114;2024-01-16T07:46:02;17.63;;;10.87;;
12760;SDS011;6444;49.742;6.114;2024-01-16T07:48:29;18.97;;;10.10;;
12760;SDS011;6444;49.742;6.114;2024-01-16T07:50:55;19.53;;;10.40;;
12760;SDS011;6444;49.742;6.114;2024-01-16T07:53:22;21.20;;;9.87;;
12760;SDS011;6444;49.742;6.114;2024-01-16T07:55:49;17.60;;;11.00;;
12760;SDS011;6444;49.742;6.114;2024-01-16T07:58:15;22.80;;;11.87;;
12760;SDS011;6444;49.742;6.114;2024-01-16T08:00:43;22.10;;;12.67;;
12760;SDS011;6444;49.742;6.114;2024-01-16T08:03:09;24.50;;;11.87;;
12760;SDS011;6444;49.742;6.114;2024-01-16T08:05:38;37.20;;;14.37;;
12760;SDS011;6444;49.742;6.114;2024-01-16T08:11:27;30.20;;;14.63;;
12760;SDS011;6444;49.742;6.114;2024-01-16T08:13:54;25.03;;;12.20;;
12760;SDS011;6444;49.742;6.114;2024-01-16T08:16:21;19.03;;;10.60;;
12760;SDS011;6444;49.742;6.114;2024-01-16T08:18:47;22.63;;;11.93;;
12760;SDS011;6444;49.742;6.114;2024-01-16T08:21:14;43.83;;;19.10;;
12760;SDS011;6444;49.742;6.114;2024-01-16T08:23:40;66.47;;;28.53;;
12760;SDS011;6444;49.742;6.114;2024-01-16T08:26:07;30.73;;;15.50;;
12760;SDS011;6444;49.742;6.114;2024-01-16T08:28:34;20.40;;;12.57;;
12760;SDS011;6444;49.742;6.114;2024-01-16T08:31:00;19.30;;;11.50;;
12760;SDS011;6444;49.742;6.114;2024-01-16T08:33:27;20.27;;;10.53;;
12760;SDS011;6444;49.742;6.114;2024-01-16T08:35:54;19.53;;;10.57;;
12760;SDS011;6444;49.742;6.114;2024-01-16T08:38:20;23.57;;;12.03;;
12760;SDS011;6444;49.742;6.114;2024-01-16T08:40:47;22.27;;;12.60;;
12760;SDS011;6444;49.742;6.114;2024-01-16T08:43:13;28.63;;;14.53;;
12760;SDS011;6444;49.742;6.114;2024-01-16T08:45:40;25.77;;;14.40;;
12760;SDS011;6444;49.742;6.114;2024-01-16T08:48:07;28.33;;;16.10;;
12760;SDS011;6444;49.742;6.114;2024-01-16T08:50:33;27.37;;;15.50;;
12760;SDS011;6444;49.742;6.114;2024-01-16T08:53:00;29.48;;;17.70;;
12760;SDS011;6444;49.742;6.114;2024-01-16T08:55:27;18.97;;;11.70;;
12760;SDS011;6444;49.742;6.114;2024-01-16T08:57:53;15.03;;;10.53;;
12760;SDS011;6444;49.742;6.114;2024-01-16T09:00:20;12.50;;;8.97;;
12760;SDS011;6444;49.742;6.114;2024-01-16T09:02:46;14.50;;;9.23;;
12760;SDS011;6444;49.742;6.114;2024-01-16T09:05:13;13.90;;;8.97;;
12760;SDS011;6444;49.742;6.114;2024-01-16T09:07:40;14.47;;;8.53;;
12760;SDS011;6444;49.742;6.114;2024-01-16T09:10:06;13.97;;;8.23;;
12760;SDS011;6444;49.742;6.114;2024-01-16T09:12:33;13.65;;;9.95;;
12760;SDS011;6444;49.742;6.114;2024-01-16T09:15:00;17.70;;;9.60;;
12760;SDS011;6444;49.742;6.114;2024-01-16T09:17:26;18.80;;;10.03;;
12760;SDS011;6444;49.742;6.114;2024-01-16T09:19:53;17.87;;;10.40;;
12760;SDS011;6444;49.742;6.114;2024-01-16T09:22:20;15.57;;;9.90;;
12760;SDS011;6444;49.742;6.114;2024-01-16T09:24:47;14.53;;;8.87;;
12760;SDS011;6444;49.742;6.114;2024-01-16T09:27:13;17.07;;;10.33;;
12760;SDS011;6444;49.742;6.114;2024-01-16T09:29:40;17.33;;;9.87;;
12760;SDS011;6444;49.742;6.114;2024-01-16T09:32:07;12.37;;;9.30;;
12760;SDS011;6444;49.742;6.114;2024-01-16T09:34:33;17.03;;;9.53;;
12760;SDS011;6444;49.742;6.114;2024-01-16T09:37:00;15.83;;;9.53;;
12760;SDS011;6444;49.742;6.114;2024-01-16T09:39:27;15.25;;;11.00;;
12760;SDS011;6444;49.742;6.114;2024-01-16T09:41:53;12.33;;;8.03;;
12760;SDS011;6444;49.742;6.114;2024-01-16T09:44:20;11.85;;;8.38;;
12760;SDS011;6444;49.742;6.114;2024-01-16T09:46:47;11.33;;;7.07;;
12760;SDS011;6444;49.742;6.114;2024-01-16T09:49:14;9.43;;;6.00;;
12760;SDS011;6444;49.742;6.114;2024-01-16T09:51:40;11.97;;;6.33;;
12760;SDS011;6444;49.742;6.114;2024-01-16T09:54:06;8.10;;;6.00;;
12760;SDS011;6444;49.742;6.114;2024-01-16T09:56:34;10.87;;;6.40;;
12760;SDS011;6444;49.742;6.114;2024-01-16T09:59:03;10.10;;;5.97;;
12760;SDS011;6444;49.742;6.114;2024-01-16T10:01:27;10.27;;;5.87;;
12760;SDS011;6444;49.742;6.114;2024-01-16T10:03:54;12.13;;;6.17;;
12760;SDS011;6444;49.742;6.114;2024-01-16T10:06:20;9.73;;;6.10;;
12760;SDS011;6444;49.742;6.114;2024-01-16T10:08:47;10.30;;;5.73;;
12760;SDS011;6444;49.742;6.114;2024-01-16T10:11:14;11.37;;;6.43;;
12760;SDS011;6444;49.742;6.114;2024-01-16T10:13:41;10.23;;;6.30;;
12760;SDS011;6444;49.742;6.114;2024-01-16T10:16:07;10.63;;;5.60;;
12760;SDS011;6444;49.742;6.114;2024-01-16T10:18:35;7.53;;;5.63;;
12760;SDS011;6444;49.742;6.114;2024-01-16T10:21:01;10.63;;;6.20;;
12760;SDS011;6444;49.742;6.114;2024-01-16T10:23:29;12.27;;;5.93;;
12760;SDS011;6444;49.742;6.114;2024-01-16T10:28:33;13.13;;;6.70;;
12760;SDS011;6444;49.742;6.114;2024-01-16T10:31:07;9.37;;;6.60;;
12760;SDS011;6444;49.742;6.114;2024-01-16T10:33:35;9.43;;;6.53;;
12760;SDS011;6444;49.742;6.114;2024-01-16T10:36:08;12.47;;;6.63;;
12760;SDS011;6444;49.742;6.114;2024-01-16T10:38:40;10.53;;;6.47;;
12760;SDS011;6444;49.742;6.114;2024-01-16T10:41:10;14.37;;;7.03;;
12760;SDS011;6444;49.742;6.114;2024-01-16T10:43:36;10.40;;;5.90;;
12760;SDS011;6444;49.742;6.114;2024-01-16T10:46:09;11.10;;;6.20;;
12760;SDS011;6444;49.742;6.114;2024-01-16T10:48:35;11.93;;;7.82;;
12760;SDS011;6444;49.742;6.114;2024-01-16T10:51:02;11.87;;;6.83;;
12760;SDS011;6444;49.742;6.114;2024-01-16T10:53:30;8.03;;;6.20;;
12760;SDS011;6444;49.742;6.114;2024-01-16T10:55:55;10.20;;;5.93;;
12760;SDS011;6444;49.742;6.114;2024-01-16T10:58:22;10.57;;;5.93;;
12760;SDS011;6444;49.742;6.114;2024-01-16T11:00:50;9.13;;;5.80;;
12760;SDS011;6444;49.742;6.114;2024-01-16T11:03:18;11.70;;;6.20;;
12760;SDS011;6444;49.742;6.114;2024-01-16T11:05:45;32.00;;;13.20;;
12760;SDS011;6444;49.742;6.114;2024-01-16T11:08:13;16.23;;;8.33;;
12760;SDS011;6444;49.742;6.114;2024-01-16T11:10:39;9.87;;;5.37;;
12760;SDS011;6444;49.742;6.114;2024-01-16T11:13:05;13.10;;;6.13;;
12760;SDS011;6444;49.742;6.114;2024-01-16T11:15:33;9.53;;;5.27;;
12760;SDS011;6444;49.742;6.114;2024-01-16T11:17:59;10.23;;;5.43;;
12760;SDS011;6444;49.742;6.114;2024-01-16T11:20:26;8.10;;;4.87;;
12760;SDS011;6444;49.742;6.114;2024-01-16T11:22:54;7.57;;;5.10;;
12760;SDS011;6444;49.742;6.114;2024-01-16T11:25:21;9.37;;;4.90;;
12760;SDS011;6444;49.742;6.114;2024-01-16T11:27:47;8.93;;;4.70;;
12760;SDS011;6444;49.742;6.114;2024-01-16T11:30:14;10.17;;;5.97;;
12760;SDS011;6444;49.742;6.114;2024-01-16T11:32:41;7.57;;;4.27;;
12760;SDS011;6444;49.742;6.114;2024-01-16T11:35:08;10.20;;;4.97;;
12760;SDS011;6444;49.742;6.114;2024-01-16T11:37:34;8.57;;;5.20;;
12760;SDS011;6444;49.742;6.114;2024-01-16T11:42:48;10.80;;;5.87;;
12760;SDS011;6444;49.742;6.114;2024-01-16T11:48:16;9.50;;;5.50;;
12760;SDS011;6444;49.742;6.114;2024-01-16T11:50:36;5.97;;;4.03;;
12760;SDS011;6444;49.742;6.114;2024-01-16T11:53:02;12.17;;;5.43;;
12760;SDS011;6444;49.742;6.114;2024-01-16T11:55:30;10.87;;;6.20;;
12760;SDS011;6444;49.742;6.114;2024-01-16T11:58:20;12.77;;;6.53;;
12760;SDS011;6444;49.742;6.114;2024-01-16T12:00:39;14.33;;;7.47;;
12760;SDS011;6444;49.742;6.114;2024-01-16T12:03:04;10.37;;;4.77;;
12760;SDS011;6444;49.742;6.114;2024-01-16T12:05:31;6.73;;;4.00;;
12760;SDS011;6444;49.742;6.114;2024-01-16T12:07:57;9.32;;;5.00;;
12760;SDS011;6444;49.742;6.114;2024-01-16T12:10:24;8.50;;;5.37;;
12760;SDS011;6444;49.742;6.114;2024-01-16T12:12:51;6.40;;;3.83;;
12760;SDS011;6444;49.742;6.114;2024-01-16T12:15:18;10.47;;;4.20;;
12760;SDS011;6444;49.742;6.114;2024-01-16T12:17:57;6.13;;;3.97;;
12760;SDS011;6444;49.742;6.114;2024-01-16T12:20:26;7.97;;;4.67;;
12760;SDS011;6444;49.742;6.114;2024-01-16T12:22:55;8.00;;;4.17;;
12760;SDS011;6444;49.742;6.114;2024-01-16T12:25:21;8.23;;;5.25;;
12760;SDS011;6444;49.742;6.114;2024-01-16T12:27:55;8.40;;;4.27;;
12760;SDS011;6444;49.742;6.114;2024-01-16T12:30:20;9.53;;;4.83;;
12760;SDS011;6444;49.742;6.114;2024-01-16T12:32:47;8.60;;;4.60;;
12760;SDS011;6444;49.742;6.114;2024-01-16T12:35:19;7.50;;;4.43;;
12760;SDS011;6444;49.742;6.114;2024-01-16T12:37:40;9.23;;;4.53;;
12760;SDS011;6444;49.742;6.114;2024-01-16T12:40:07;8.47;;;4.37;;
12760;SDS011;6444;49.742;6.114;2024-01-16T12:42:34;9.40;;;4.70;;
12760;SDS011;6444;49.742;6.114;2024-01-16T12:45:06;7.60;;;4.57;;
12760;SDS011;6444;49.742;6.114;2024-01-16T12:47:27;9.37;;;4.50;;
12760;SDS011;6444;49.742;6.114;2024-01-16T12:49:54;9.33;;;4.43;;
12760;SDS011;6444;49.742;6.114;2024-01-16T12:52:21;8.83;;;4.43;;
12760;SDS011;6444;49.742;6.114;2024-01-16T12:54:48;8.23;;;4.50;;
12760;SDS011;6444;49.742;6.114;2024-01-16T12:57:18;9.30;;;4.77;;
12760;SDS011;6444;49.742;6.114;2024-01-16T12:59:44;10.07;;;4.47;;
12760;SDS011;6444;49.742;6.114;2024-01-16T13:02:19;8.77;;;4.70;;
12760;SDS011;6444;49.742;6.114;2024-01-16T13:04:38;6.93;;;4.60;;
12760;SDS011;6444;49.742;6.114;2024-01-16T13:07:05;7.97;;;4.40;;
12760;SDS011;6444;49.742;6.114;2024-01-16T13:09:31;6.43;;;4.47;;
12760;SDS011;6444;49.742;6.114;2024-01-16T13:11:58;7.70;;;4.30;;
12760;SDS011;6444;49.742;6.114;2024-01-16T13:14:25;5.33;;;3.93;;
12760;SDS011;6444;49.742;6.114;2024-01-16T13:16:52;5.57;;;3.80;;
12760;SDS011;6444;49.742;6.114;2024-01-16T13:19:18;7.73;;;4.77;;
12760;SDS011;6444;49.742;6.114;2024-01-16T13:21:45;8.63;;;4.60;;
12760;SDS011;6444;49.742;6.114;2024-01-16T13:24:11;7.90;;;4.33;;
12760;SDS011;6444;49.742;6.114;2024-01-16T13:26:39;8.83;;;4.43;;
12760;SDS011;6444;49.742;6.114;2024-01-16T13:29:05;8.37;;;4.80;;
12760;SDS011;6444;49.742;6.114;2024-01-16T13:31:32;9.07;;;4.77;;
12760;SDS011;6444;49.742;6.114;2024-01-16T13:33:58;8.37;;;5.10;;
12760;SDS011;6444;49.742;6.114;2024-01-16T13:36:25;7.83;;;4.80;;
12760;SDS011;6444;49.742;6.114;2024-01-16T13:38:52;10.73;;;6.45;;
12760;SDS011;6444;49.742;6.114;2024-01-16T13:41:18;8.17;;;6.33;;
12760;SDS011;6444;49.742;6.114;2024-01-16T13:43:45;11.13;;;5.50;;
12760;SDS011;6444;49.742;6.114;2024-01-16T13:46:12;9.00;;;4.60;;
12760;SDS011;6444;49.742;6.114;2024-01-16T13:48:38;8.10;;;5.00;;
12760;SDS011;6444;49.742;6.114;2024-01-16T13:51:05;6.87;;;5.20;;
12760;SDS011;6444;49.742;6.114;2024-01-16T13:53:31;9.10;;;5.00;;
12760;SDS011;6444;49.742;6.114;2024-01-16T13:55:58;8.38;;;5.70;;
12760;SDS011;6444;49.742;6.114;2024-01-16T13:58:25;9.27;;;5.97;;
12760;SDS011;6444;49.742;6.114;2024-01-16T14:00:51;8.57;;;5.27;;
12760;SDS011;6444;49.742;6.114;2024-01-16T14:03:18;8.00;;;4.53;;
12760;SDS011;6444;49.742;6.114;2024-01-16T14:05:45;9.80;;;4.93;;
12760;SDS011;6444;49.742;6.114;2024-01-16T14:08:11;7.73;;;4.33;;
12760;SDS011;6444;49.742;6.114;2024-01-16T14:10:38;7.15;;;5.40;;
12760;SDS011;6444;49.742;6.114;2024-01-16T14:13:04;10.37;;;6.00;;
12760;SDS011;6444;49.742;6.114;2024-01-16T14:15:31;7.67;;;4.73;;
12760;SDS011;6444;49.742;6.114;2024-01-16T14:17:58;6.20;;;4.00;;
12760;SDS011;6444;49.742;6.114;2024-01-16T14:20:25;7.17;;;4.70;;
12760;SDS011;6444;49.742;6.114;2024-01-16T14:22:52;9.13;;;4.30;;
12760;SDS011;6444;49.742;6.114;2024-01-16T14:25:19;7.23;;;4.27;;
12760;SDS011;6444;49.742;6.114;2024-01-16T14:27:48;7.47;;;4.60;;
12760;SDS011;6444;49.742;6.114;2024-01-16T14:30:15;7.50;;;4.10;;
12760;SDS011;6444;49.742;6.114;2024-01-16T14:32:44;7.73;;;4.30;;
12760;SDS011;6444;49.742;6.114;2024-01-16T14:35:09;6.63;;;4.27;;
12760;SDS011;6444;49.742;6.114;2024-01-16T14:37:35;7.73;;;4.60;;
12760;SDS011;6444;49.742;6.114;2024-01-16T14:40:01;7.87;;;4.30;;
12760;SDS011;6444;49.742;6.114;2024-01-16T14:42:28;5.83;;;4.00;;
12760;SDS011;6444;49.742;6.114;2024-01-16T14:44:55;6.93;;;4.30;;
12760;SDS011;6444;49.742;6.114;2024-01-16T14:47:21;8.47;;;4.40;;
12760;SDS011;6444;49.742;6.114;2024-01-16T14:49:48;10.32;;;5.30;;
12760;SDS011;6444;49.742;6.114;2024-01-16T14:52:14;8.00;;;4.87;;
12760;SDS011;6444;49.742;6.114;2024-01-16T14:54:41;6.17;;;4.67;;
12760;SDS011;6444;49.742;6.114;2024-01-16T14:57:08;7.93;;;4.57;;
12760;SDS011;6444;49.742;6.114;2024-01-16T14:59:34;7.10;;;4.50;;
12760;SDS011;6444;49.742;6.114;2024-01-16T15:02:01;6.73;;;4.40;;